createdAt,value
2022-08-26T00:02:30.676Z,5.13
2022-08-26T00:07:32.455Z,5.40
2022-08-26T00:12:37.262Z,5.15
2022-08-26T00:17:40.350Z,5.40
2022-08-26T00:22:42.690Z,5.50
2022-08-26T00:27:44.664Z,5.72
2022-08-26T00:32:46.672Z,7.28
2022-08-26T00:37:49.134Z,6.15
2022-08-26T00:42:51.177Z,6.50
2022-08-26T00:47:57.765Z,5.80
2022-08-26T00:53:01.814Z,5.60
2022-08-26T00:58:04.807Z,5.03
2022-08-26T01:03:07.568Z,4.60
2022-08-26T01:08:14.412Z,5.43
2022-08-26T01:13:17.147Z,6.57
2022-08-26T01:18:22.249Z,5.15
2022-08-26T01:23:28.744Z,5.60
2022-08-26T01:28:33.713Z,5.10
2022-08-26T01:33:45.951Z,6.13
2022-08-26T01:38:47.827Z,5.75
2022-08-26T01:43:53.172Z,5.57
2022-08-26T01:48:58.788Z,6.00
2022-08-26T01:54:00.920Z,6.28
2022-08-26T02:04:41.492Z,6.47
2022-08-26T02:09:44.209Z,6.60
2022-08-26T02:14:53.756Z,6.95
2022-08-26T02:19:56.201Z,7.18
2022-08-26T02:25:06.769Z,7.10
2022-08-26T02:30:11.578Z,7.57
2022-08-26T02:35:20.118Z,7.25
2022-08-26T02:40:27.296Z,6.68
2022-08-26T02:45:29.496Z,6.25
2022-08-26T02:50:31.897Z,7.20
2022-08-26T02:55:34.035Z,7.28
2022-08-26T03:00:39.757Z,6.72
2022-08-26T03:05:54.969Z,7.13
2022-08-26T03:10:56.724Z,7.88
2022-08-26T03:16:01.505Z,8.60
2022-08-26T03:21:07.628Z,7.22
2022-08-26T03:26:10.975Z,7.60
2022-08-26T03:31:13.023Z,8.23
2022-08-26T03:36:15.348Z,7.40
2022-08-26T03:41:17.967Z,8.10
2022-08-26T03:46:21.161Z,8.18
2022-08-26T03:51:25.291Z,7.57
2022-08-26T03:56:27.548Z,6.78
2022-08-26T04:01:29.832Z,7.63
2022-08-26T04:06:36.123Z,7.13
2022-08-26T04:11:39.652Z,7.47
2022-08-26T04:21:46.391Z,7.90
2022-08-26T04:26:48.769Z,8.73
2022-08-26T04:31:55.264Z,8.27
2022-08-26T04:36:58.218Z,7.18
2022-08-26T04:42:00.570Z,9.32
2022-08-26T04:47:04.661Z,9.52
2022-08-26T04:52:06.402Z,7.88
2022-08-26T04:57:09.863Z,9.25
2022-08-26T05:02:11.845Z,8.70
2022-08-26T05:07:13.588Z,8.25
2022-08-26T05:12:19.387Z,8.18
2022-08-26T05:17:21.236Z,7.03
2022-08-26T05:22:22.978Z,7.63
2022-08-26T05:27:24.717Z,7.90
2022-08-26T05:32:27.443Z,7.55
2022-08-26T05:37:30.936Z,8.13
2022-08-26T05:42:33.426Z,6.80
2022-08-26T05:47:35.818Z,7.10
2022-08-26T05:52:37.818Z,7.80
2022-08-26T05:57:42.762Z,8.82
2022-08-26T06:02:44.721Z,9.25
2022-08-26T06:08:08.894Z,8.48
2022-08-26T06:13:12.512Z,7.18
2022-08-26T06:18:16.683Z,7.15
2022-08-26T06:23:37.400Z,7.05
2022-08-26T06:28:43.759Z,7.15
2022-08-26T06:33:47.461Z,6.88
2022-08-26T06:38:50.452Z,6.97
2022-08-26T06:43:52.366Z,6.28
2022-08-26T06:48:54.955Z,8.70
2022-08-26T06:54:00.062Z,9.77
2022-08-26T06:59:02.081Z,6.80
2022-08-26T07:04:10.512Z,6.80
2022-08-26T07:09:12.705Z,5.63
2022-08-26T07:14:16.756Z,6.55
2022-08-26T07:19:29.773Z,6.10
2022-08-26T07:24:37.326Z,6.20
2022-08-26T07:29:40.093Z,6.00
2022-08-26T07:34:42.449Z,5.82
2022-08-26T07:39:45.172Z,5.78
2022-08-26T07:44:47.503Z,6.35
2022-08-26T07:49:49.241Z,6.28
2022-08-26T07:54:56.437Z,5.40
2022-08-26T07:59:59.405Z,6.38
2022-08-26T08:05:01.203Z,5.70
2022-08-26T08:10:09.616Z,5.72
2022-08-26T08:15:15.379Z,5.63
2022-08-26T08:20:17.329Z,5.10
2022-08-26T08:25:20.152Z,6.38
2022-08-26T08:30:23.275Z,6.18
2022-08-26T08:35:26.406Z,6.18
2022-08-26T08:40:29.344Z,5.93
2022-08-26T08:45:43.118Z,5.88
2022-08-26T08:51:07.485Z,6.03
2022-08-26T08:56:28.864Z,5.68
2022-08-26T09:01:45.396Z,5.68
2022-08-26T09:06:49.728Z,5.32
2022-08-26T09:11:52.271Z,5.53
2022-08-26T09:17:10.196Z,6.63
2022-08-26T09:22:29.497Z,6.05
2022-08-26T09:27:50.403Z,5.35
2022-08-26T09:33:10.158Z,6.78
2022-08-26T09:38:34.064Z,6.15
2022-08-26T09:43:35.855Z,6.38
2022-08-26T09:48:41.092Z,5.77
2022-08-26T09:54:01.771Z,7.07
2022-08-26T09:59:08.284Z,5.65
2022-08-26T10:04:30.723Z,7.07
2022-08-26T10:09:40.514Z,6.28
2022-08-26T10:14:49.670Z,5.50
2022-08-26T10:20:04.007Z,4.63
2022-08-26T10:25:12.997Z,3.72
2022-08-26T10:30:19.152Z,4.88
2022-08-26T10:35:21.307Z,3.65
2022-08-26T10:40:45.331Z,4.00
2022-08-26T10:46:00.275Z,3.60
2022-08-26T10:51:04.175Z,3.70
2022-08-26T10:56:15.736Z,4.28
2022-08-26T11:01:57.638Z,5.57
2022-08-26T11:07:35.354Z,4.53
2022-08-26T11:12:37.184Z,4.55
2022-08-26T11:17:45.254Z,5.10
2022-08-26T11:22:48.280Z,4.88
2022-08-26T11:27:51.690Z,5.47
2022-08-26T11:32:57.177Z,5.30
2022-08-26T11:38:27.102Z,4.55
2022-08-26T11:43:30.246Z,4.95
2022-08-26T11:48:33.326Z,5.07
2022-08-26T11:53:38.473Z,5.40
2022-08-26T11:58:44.746Z,5.05
2022-08-26T12:03:51.440Z,5.32
2022-08-26T12:08:57.932Z,5.65
2022-08-26T12:14:03.388Z,4.50
2022-08-26T12:19:32.753Z,4.22
2022-08-26T12:24:35.728Z,4.03
2022-08-26T12:29:37.531Z,4.80
2022-08-26T12:34:43.671Z,4.82
2022-08-26T12:39:46.213Z,5.00
2022-08-26T12:45:00.678Z,4.20
2022-08-26T12:50:19.460Z,4.57
2022-08-26T12:55:26.442Z,4.28
2022-08-26T13:00:36.869Z,4.15
2022-08-26T13:05:38.640Z,3.85
2022-08-26T13:10:46.576Z,3.42
2022-08-26T13:15:48.326Z,3.42
2022-08-26T13:20:50.069Z,3.40
2022-08-26T13:25:52.167Z,4.63
2022-08-26T13:30:53.927Z,2.60
2022-08-26T13:35:55.717Z,2.50
2022-08-26T13:40:59.719Z,4.50
2022-08-26T13:46:01.847Z,4.20
2022-08-26T13:51:09.000Z,3.70
2022-08-26T13:56:11.224Z,3.75
2022-08-26T14:01:13.774Z,3.70
2022-08-26T14:06:16.533Z,3.60
2022-08-26T14:11:21.389Z,4.95
2022-08-26T14:16:28.994Z,4.20
2022-08-26T14:21:33.569Z,3.90
2022-08-26T14:26:35.420Z,4.97
2022-08-26T14:31:37.785Z,3.92
2022-08-26T14:36:39.891Z,4.47
2022-08-26T14:41:53.859Z,4.07
2022-08-26T14:46:57.090Z,4.38
2022-08-26T14:51:59.236Z,4.97
2022-08-26T14:57:03.777Z,4.60
2022-08-26T15:02:07.627Z,4.68
2022-08-26T15:07:09.834Z,4.65
2022-08-26T15:12:14.569Z,4.55
2022-08-26T15:17:16.311Z,3.65
2022-08-26T15:22:18.736Z,4.70
2022-08-26T15:27:20.954Z,4.25
2022-08-26T15:32:22.846Z,4.63
2022-08-26T15:37:24.643Z,4.95
2022-08-26T15:42:26.395Z,4.50
2022-08-26T15:47:28.176Z,4.68
2022-08-26T15:52:30.272Z,4.85
2022-08-26T15:57:32.134Z,5.15
2022-08-26T16:02:35.051Z,4.83
2022-08-26T16:07:37.033Z,5.72
2022-08-26T16:12:38.773Z,5.00
2022-08-26T16:17:40.701Z,4.72
2022-08-26T16:22:42.784Z,5.07
2022-08-26T16:27:44.499Z,5.70
2022-08-26T16:32:46.678Z,5.50
2022-08-26T16:37:48.421Z,5.55
2022-08-26T16:42:50.462Z,6.18
2022-08-26T16:47:52.869Z,7.05
2022-08-26T16:52:55.761Z,6.30
2022-08-26T16:57:57.624Z,6.33
2022-08-26T17:03:01.213Z,5.55
2022-08-26T17:08:04.338Z,5.68
2022-08-26T17:13:06.434Z,6.23
2022-08-26T17:18:08.989Z,6.32
2022-08-26T17:23:10.850Z,5.47
2022-08-26T17:28:13.635Z,5.28
2022-08-26T17:33:17.126Z,7.07
2022-08-26T17:38:24.401Z,6.15
2022-08-26T17:43:26.791Z,6.78
2022-08-26T17:48:28.844Z,6.65
2022-08-26T17:53:30.602Z,6.13
2022-08-26T17:58:32.345Z,7.13
2022-08-26T18:03:37.067Z,6.25
2022-08-26T18:08:40.113Z,6.57
2022-08-26T18:13:47.020Z,6.73
2022-08-26T18:18:53.074Z,6.75
2022-08-26T18:23:55.880Z,6.18
2022-08-26T18:28:57.837Z,6.53
2022-08-26T18:34:01.473Z,6.20
2022-08-26T18:39:05.255Z,6.93
2022-08-26T18:44:12.953Z,6.88
2022-08-26T18:49:18.043Z,6.00
2022-08-26T18:59:28.473Z,6.07
2022-08-26T19:04:32.337Z,6.93
2022-08-26T19:09:34.611Z,7.03
2022-08-26T19:19:39.651Z,5.03
2022-08-26T19:24:41.382Z,5.65
2022-08-26T19:29:43.207Z,5.15
2022-08-26T19:34:44.933Z,5.53
2022-08-26T19:39:47.670Z,6.25
2022-08-26T19:45:24.750Z,6.63
2022-08-26T19:50:29.396Z,8.02
2022-08-26T19:55:31.313Z,8.10
2022-08-26T20:00:34.540Z,7.70
2022-08-26T20:05:36.322Z,8.82
2022-08-26T20:10:39.092Z,8.00
2022-08-26T20:15:43.111Z,7.20
2022-08-26T20:21:03.652Z,7.70
2022-08-26T20:26:05.612Z,7.90
2022-08-26T20:31:08.077Z,8.57
2022-08-26T20:36:12.008Z,8.70
2022-08-26T20:41:14.310Z,6.72
2022-08-26T20:46:18.831Z,6.15
2022-08-26T20:51:26.435Z,6.80
2022-08-26T20:56:28.221Z,6.35
2022-08-26T21:01:34.570Z,8.90
2022-08-26T21:06:38.178Z,8.18
2022-08-26T21:11:41.410Z,7.68
2022-08-26T21:16:44.149Z,6.82
2022-08-26T21:21:48.177Z,6.53
2022-08-26T21:26:49.946Z,5.70
2022-08-26T21:31:51.708Z,4.75
2022-08-26T21:36:53.565Z,5.70
2022-08-26T21:41:55.337Z,5.82
2022-08-26T21:46:57.074Z,6.05
2022-08-26T21:51:58.819Z,6.28
2022-08-26T21:57:00.731Z,5.97
2022-08-26T22:02:02.673Z,7.45
2022-08-26T22:07:04.983Z,6.40
2022-08-26T22:12:10.130Z,5.50
2022-08-26T22:17:12.458Z,6.68
2022-08-26T22:22:14.528Z,6.38
2022-08-26T22:27:16.263Z,7.55
2022-08-26T22:32:18.556Z,7.07
2022-08-26T22:37:20.328Z,5.75
2022-08-26T22:42:22.366Z,5.53
2022-08-26T22:47:24.451Z,7.30
2022-08-26T22:52:26.309Z,6.13
2022-08-26T22:57:28.058Z,6.13
2022-08-26T23:02:29.781Z,7.55
2022-08-26T23:07:31.516Z,7.97
2022-08-26T23:12:36.827Z,7.45
2022-08-26T23:17:39.551Z,6.47
2022-08-26T23:22:41.305Z,6.80
2022-08-26T23:27:43.473Z,6.97
2022-08-26T23:32:45.326Z,7.30
2022-08-26T23:37:51.029Z,8.15
2022-08-26T23:42:54.884Z,6.25
2022-08-26T23:47:56.744Z,7.05
2022-08-26T23:53:08.702Z,6.50
2022-08-26T23:58:11.052Z,9.35
